Time;durP1;ratioP1;P1;durP2;ratioP2;P2;SDS_P1;SDS_P2;PMS_P1;PMS_P2;Temp;Humidity;BMP_temperature;BMP_pressure;BME280_temperature;BME280_humidity;BME280_pressure;Samples;Min_cycle;Max_cycle;Signal;HPM_P1;HPM_P2
2023/09/05 00:01:56;;;;;;;5.07;2.60;;;;;;;24.45;57.81;101479.16;5014249;28;20046;-71
2023/09/05 00:04:25;;;;;;;4.72;2.47;;;;;;;24.34;57.34;101476.84;5014446;28;20053;-71
2023/09/05 00:06:52;;;;;;;3.55;2.40;;;;;;;24.53;57.64;101478.19;5012846;28;20045;-71
2023/09/05 00:09:20;;;;;;;3.58;2.53;;;;;;;24.42;57.41;101475.09;5013968;28;20057;-72
2023/09/05 00:11:50;;;;;;;2.78;2.17;;;;;;;24.54;57.51;101472.25;5012162;28;20049;-71
2023/09/05 00:14:20;;;;;;;2.58;2.38;;;;;;;24.24;58.02;101468.97;5013090;28;20050;-71
2023/09/05 00:16:48;;;;;;;2.90;2.47;;;;;;;24.44;58.67;101464.38;5013359;28;20403;-71
2023/09/05 00:19:16;;;;;;;2.78;2.53;;;;;;;24.49;58.25;101466.91;5013428;28;20100;-72
2023/09/05 00:21:44;;;;;;;3.42;1.92;;;;;;;24.50;57.76;101462.13;5013683;28;20042;-71
2023/09/05 00:24:25;;;;;;;2.78;2.53;;;;;;;24.28;57.51;101459.53;5013370;28;20046;-71
2023/09/05 00:26:55;;;;;;;3.67;2.45;;;;;;;24.27;57.06;101454.28;5013706;28;20053;-71
2023/09/05 00:29:26;;;;;;;3.10;1.92;;;;;;;24.54;57.17;101461.06;5011382;28;20065;-71
2023/09/05 00:31:59;;;;;;;2.30;2.10;;;;;;;24.54;59.13;101461.06;5011943;28;20058;-72
2023/09/05 00:34:29;;;;;;;3.00;2.70;;;;;;;24.29;58.86;101446.34;5013242;28;20484;-71
2023/09/05 00:37:19;;;;;;;2.58;2.38;;;;;;;24.35;57.81;101446.91;5013602;28;20050;-71
2023/09/05 00:40:00;;;;;;;4.15;2.35;;;;;;;24.44;58.58;101450.41;5010985;28;20489;-71
2023/09/05 00:42:28;;;;;;;2.40;2.10;;;;;;;24.43;57.90;101455.16;5013213;28;20497;-71
2023/09/05 00:44:56;;;;;;;5.28;2.50;;;;;;;24.36;58.29;101443.78;5013216;28;20050;-71
2023/09/05 00:47:27;;;;;;;2.60;2.40;;;;;;;24.27;58.61;101440.28;5013116;28;20057;-72
2023/09/05 00:49:55;;;;;;;2.47;2.15;;;;;;;24.23;59.88;101436.56;5010781;28;20509;-71
2023/09/05 00:52:25;;;;;;;3.00;2.17;;;;;;;24.23;58.51;101433.78;5027987;28;20425;-71
2023/09/05 00:54:54;;;;;;;2.22;2.03;;;;;;;24.12;59.71;101428.69;5011655;28;20046;-71
2023/09/05 00:57:24;;;;;;;2.90;2.20;;;;;;;24.10;58.91;101431.00;5012794;28;20042;-72
2023/09/05 00:59:52;;;;;;;2.50;2.30;;;;;;;24.02;60.10;101427.16;5012778;28;20046;-71
2023/09/05 01:02:19;;;;;;;2.85;2.10;;;;;;;24.06;60.86;101440.44;5012881;28;20492;-71
2023/09/05 01:04:47;;;;;;;3.03;2.67;;;;;;;23.92;60.75;101429.59;5011126;28;20050;-71
2023/09/05 01:07:15;;;;;;;3.55;2.28;;;;;;;23.95;59.96;101440.91;5012771;28;20053;-71
2023/09/05 01:10:06;;;;;;;4.25;2.67;;;;;;;24.01;61.72;101427.50;5011689;28;20061;-71
2023/09/05 01:12:34;;;;;;;3.33;2.35;;;;;;;23.87;61.65;101436.25;5012635;28;20057;-71
2023/09/05 01:15:04;;;;;;;2.50;2.30;;;;;;;23.97;60.89;101424.59;5011137;28;20054;-71
2023/09/05 01:17:31;;;;;;;3.95;2.28;;;;;;;23.78;61.55;101428.00;5012416;28;20133;-71
2023/09/05 01:20:01;;;;;;;4.40;2.72;;;;;;;23.76;62.16;101425.56;5012530;28;20396;-71
2023/09/05 01:22:47;;;;;;;2.63;2.42;;;;;;;23.64;62.97;101419.19;5011212;28;20047;-72
2023/09/05 01:25:16;;;;;;;3.25;2.67;;;;;;;23.73;62.55;101425.44;5012271;28;20523;-71
2023/09/05 01:27:48;;;;;;;3.05;2.70;;;;;;;23.70;63.85;101415.78;5027242;28;20045;-71
2023/09/05 01:30:17;;;;;;;3.10;2.80;;;;;;;23.84;62.71;101415.41;5012046;28;20409;-72
2023/09/05 01:32:46;;;;;;;3.55;2.97;;;;;;;23.80;63.20;101422.06;5011562;28;20496;-72
2023/09/05 01:35:14;;;;;;;3.45;2.78;;;;;;;23.77;64.26;101429.16;5011929;28;20073;-72
2023/09/05 01:37:42;;;;;;;2.83;2.50;;;;;;;23.85;64.61;101419.84;5010949;28;20042;-71
2023/09/05 01:40:11;;;;;;;4.88;2.95;;;;;;;23.86;64.24;101427.06;5012333;28;20053;-71
2023/09/05 01:42:39;;;;;;;3.67;2.67;;;;;;;23.65;64.42;101431.97;5012150;28;20050;-71
2023/09/05 01:45:07;;;;;;;3.28;2.97;;;;;;;23.59;64.21;101428.59;5010071;28;20512;-71
2023/09/05 01:47:35;;;;;;;5.60;2.67;;;;;;;23.52;65.24;101433.94;5011185;28;20050;-71
2023/09/05 01:50:03;;;;;;;5.22;3.47;;;;;;;23.64;65.42;101419.19;5026361;28;20069;-71
2023/09/05 01:52:32;;;;;;;4.03;3.00;;;;;;;23.65;62.91;101418.00;5012122;28;20417;-71
2023/09/05 01:55:00;;;;;;;4.00;3.40;;;;;;;23.55;61.29;101434.06;5011986;28;20069;-71
2023/09/05 01:57:28;;;;;;;3.65;3.28;;;;;;;23.70;61.70;101426.94;5011901;28;20050;-72
2023/09/05 01:59:55;;;;;;;3.47;3.17;;;;;;;23.70;61.80;101421.38;5010812;28;20385;-72
2023/09/05 02:02:24;;;;;;;2.92;2.58;;;;;;;23.78;60.03;101428.00;5010933;28;20342;-71
2023/09/05 02:04:52;;;;;;;3.97;2.90;;;;;;;23.78;58.82;101430.78;5011084;28;20050;-71
2023/09/05 02:07:20;;;;;;;3.28;2.53;;;;;;;23.95;58.82;101432.50;5011630;28;20050;-71
2023/09/05 02:09:48;;;;;;;3.47;3.03;;;;;;;23.81;60.01;101430.09;5008636;28;20050;-71
2023/09/05 02:12:16;;;;;;;2.80;2.55;;;;;;;23.81;58.18;101432.06;5012027;28;20054;-71
2023/09/05 02:14:47;;;;;;;3.72;2.47;;;;;;;23.77;58.07;101434.75;5011984;28;20045;-71
2023/09/05 02:17:20;;;;;;;2.60;2.40;;;;;;;23.54;58.08;101426.84;5010271;28;20057;-72
2023/09/05 02:19:48;;;;;;;3.90;3.00;;;;;;;23.73;57.86;101422.66;5026147;28;20065;-71
2023/09/05 02:22:17;;;;;;;3.15;2.22;;;;;;;23.52;57.00;101418.00;5011822;28;20054;-71
2023/09/05 02:24:45;;;;;;;4.88;2.65;;;;;;;23.53;56.25;101416.84;5026589;28;20172;-71
2023/09/05 02:27:13;;;;;;;2.70;2.50;;;;;;;23.55;55.77;101420.09;5027154;28;20038;-71
2023/09/05 02:29:41;;;;;;;3.33;2.72;;;;;;;23.64;55.56;101416.38;5011521;28;20057;-72
2023/09/05 02:32:09;;;;;;;3.70;2.45;;;;;;;23.59;54.31;101412.66;5010656;28;20068;-71
2023/09/05 02:34:38;;;;;;;2.80;2.13;;;;;;;23.58;53.71;101401.81;5011411;28;20054;-71
2023/09/05 02:37:06;;;;;;;3.97;2.38;;;;;;;23.72;52.77;101410.66;5009592;28;20065;-72
2023/09/05 02:39:33;;;;;;;4.85;2.17;;;;;;;23.83;52.87;101405.41;5011510;28;20054;-71
2023/09/05 02:42:03;;;;;;;2.45;2.20;;;;;;;23.61;53.58;101403.91;5011417;28;20058;-72
2023/09/05 02:44:31;;;;;;;2.10;1.77;;;;;;;23.65;53.53;101396.44;5011678;28;20049;-71
2023/09/05 02:46:59;;;;;;;3.17;2.38;;;;;;;23.43;53.23;101394.94;5025729;28;20050;-71
2023/09/05 02:49:27;;;;;;;2.47;2.05;;;;;;;23.49;53.25;101393.56;5007972;28;20480;-71
2023/09/05 02:51:57;;;;;;;2.92;2.17;;;;;;;23.48;52.83;101412.31;5010012;28;20050;-71
2023/09/05 02:54:27;;;;;;;2.05;1.80;;;;;;;23.52;51.98;101392.88;5010199;28;20436;-71
2023/09/05 02:56:56;;;;;;;4.93;1.85;;;;;;;23.44;52.53;101399.38;5010679;28;20046;-71
2023/09/05 02:59:24;;;;;;;2.60;2.08;;;;;;;23.52;52.98;101401.25;5026764;28;20056;-71
2023/09/05 03:01:52;;;;;;;2.22;2.03;;;;;;;23.45;52.83;101396.22;5011107;28;20041;-71
2023/09/05 03:04:20;;;;;;;4.07;2.40;;;;;;;23.60;52.34;101403.09;5010089;28;20481;-71
2023/09/05 03:06:48;;;;;;;3.10;2.10;;;;;;;23.57;51.90;101391.81;5011685;28;20493;-71
2023/09/05 03:09:15;;;;;;;3.53;1.73;;;;;;;23.61;52.21;101393.53;5011079;28;20418;-71
2023/09/05 03:11:43;;;;;;;2.75;1.75;;;;;;;23.56;52.74;101393.78;5009934;28;20042;-71
2023/09/05 03:14:11;;;;;;;2.22;2.03;;;;;;;23.60;51.65;101396.69;5009347;28;20061;-71
2023/09/05 03:16:39;;;;;;;2.63;1.55;;;;;;;23.51;53.15;101385.63;5011456;28;20042;-71
2023/09/05 03:19:11;;;;;;;2.55;1.60;;;;;;;23.38;53.16;101384.00;5013633;28;20054;-71
2023/09/05 03:21:40;;;;;;;2.92;1.80;;;;;;;23.45;52.96;101387.84;5014402;28;20057;-71
2023/09/05 03:24:07;;;;;;;4.57;2.10;;;;;;;23.62;53.15;101397.97;5013510;28;20057;-71
2023/09/05 03:26:36;;;;;;;2.63;1.95;;;;;;;23.42;53.31;101387.75;5014677;28;20049;-71
2023/09/05 03:29:06;;;;;;;2.30;1.65;;;;;;;23.38;53.97;101393.22;5013110;28;20061;-71
2023/09/05 03:31:35;;;;;;;2.47;2.00;;;;;;;23.35;54.20;101396.69;5014083;28;20061;-71
2023/09/05 03:34:03;;;;;;;2.50;1.95;;;;;;;23.57;53.74;101397.41;5029535;28;20057;-71
2023/09/05 03:36:32;;;;;;;4.35;2.05;;;;;;;23.67;54.46;101407.28;5013076;28;20045;-71
2023/09/05 03:39:00;;;;;;;3.25;1.90;;;;;;;23.43;54.73;101392.97;5014467;28;20524;-71
2023/09/05 03:41:28;;;;;;;3.10;2.10;;;;;;;23.53;53.52;101396.47;5013943;28;20057;-71
2023/09/05 03:43:56;;;;;;;2.75;1.95;;;;;;;23.59;53.99;101398.69;5014470;28;20081;-71
2023/09/05 03:46:24;;;;;;;2.38;1.88;;;;;;;23.61;53.57;101393.53;5012084;28;20042;-71
2023/09/05 03:48:53;;;;;;;3.42;1.75;;;;;;;23.42;54.05;101396.13;5012819;28;20073;-71
2023/09/05 03:51:21;;;;;;;2.47;1.60;;;;;;;23.33;54.42;101394.28;5013953;28;20062;-71
2023/09/05 03:53:51;;;;;;;4.65;1.88;;;;;;;23.48;53.81;101394.72;5013142;28;20046;-71
2023/09/05 03:56:21;;;;;;;3.03;1.98;;;;;;;23.49;53.71;101390.75;5014117;28;20057;-71
2023/09/05 03:58:49;;;;;;;2.28;1.98;;;;;;;23.41;54.51;101389.72;5014240;28;20045;-71
2023/09/05 04:01:17;;;;;;;3.47;2.00;;;;;;;23.39;53.92;101391.22;5012385;28;20050;-71
2023/09/05 04:03:45;;;;;;;1.60;1.50;;;;;;;23.50;53.25;101392.38;5012488;28;20050;-71
2023/09/05 04:06:13;;;;;;;4.00;1.88;;;;;;;23.39;53.84;101391.22;5013722;28;20072;-70
2023/09/05 04:08:41;;;;;;;2.33;2.03;;;;;;;23.35;54.35;101389.13;5029270;28;20049;-70
2023/09/05 04:11:09;;;;;;;3.60;1.73;;;;;;;23.10;54.32;101388.25;5012721;28;20045;-71
2023/09/05 04:13:37;;;;;;;3.22;1.48;;;;;;;23.19;53.27;101379.78;5013777;28;20045;-70
2023/09/05 04:16:06;;;;;;;3.70;2.13;;;;;;;23.30;52.29;101386.53;5013384;28;20049;-71
2023/09/05 04:18:34;;;;;;;2.78;2.00;;;;;;;23.26;52.69;101385.59;5013512;28;20046;-71
2023/09/05 04:21:02;;;;;;;2.80;1.42;;;;;;;23.30;53.60;101392.13;5012861;28;20049;-71
2023/09/05 04:23:30;;;;;;;2.65;2.08;;;;;;;23.37;52.88;101387.97;5013767;28;20045;-71
2023/09/05 04:26:02;;;;;;;1.90;1.58;;;;;;;23.31;52.62;101395.78;5012043;28;20052;-70
2023/09/05 04:28:31;;;;;;;3.10;1.60;;;;;;;23.32;52.46;101398.19;5011667;28;20038;-71
2023/09/05 04:31:04;;;;;;;2.85;2.08;;;;;;;23.34;52.95;101395.06;4994694;28;20053;-71
2023/09/05 04:33:37;;;;;;;3.97;1.60;;;;;;;23.34;53.17;101395.91;5004222;28;20044;-71
2023/09/05 04:36:26;;;;;;;2.33;1.80;;;;;;;23.73;52.90;101400.28;5013264;28;20065;-81
2023/09/05 04:39:01;;;;;;;5.30;1.90;;;;;;;24.14;52.27;101403.97;4977423;28;20058;-81
2023/09/05 04:41:29;;;;;;;3.40;1.98;;;;;;;24.43;51.08;101398.41;4989097;28;20049;-81
2023/09/05 04:43:57;;;;;;;5.20;2.03;;;;;;;24.53;51.00;101403.50;4992728;28;20057;-80
2023/09/05 04:46:27;;;;;;;1.50;1.40;;;;;;;24.43;48.91;101404.81;4989294;28;20050;-82
2023/09/05 04:48:55;;;;;;;2.75;1.55;;;;;;;24.33;48.48;101408.09;4987283;28;20056;-79
2023/09/05 04:51:23;;;;;;;2.80;1.70;;;;;;;24.61;49.30;101404.50;4978747;28;20058;-82
2023/09/05 04:53:51;;;;;;;1.77;1.35;;;;;;;24.68;48.09;101412.31;4995805;28;20053;-82
2023/09/05 04:56:20;;;;;;;2.33;1.33;;;;;;;24.91;48.00;101423.75;4979540;28;20053;-81
2023/09/05 04:58:49;;;;;;;1.92;1.58;;;;;;;24.80;47.81;101417.00;4979359;28;20054;-81
2023/09/05 05:01:17;;;;;;;2.05;1.70;;;;;;;24.79;46.99;101421.78;4990933;28;20046;-81
2023/09/05 05:03:46;;;;;;;1.80;1.58;;;;;;;24.88;47.13;101421.66;4995789;28;20504;-80
2023/09/05 05:06:14;;;;;;;2.00;1.42;;;;;;;24.94;47.08;101411.00;4979909;28;20408;-80
2023/09/05 05:08:42;;;;;;;2.83;1.77;;;;;;;24.95;46.89;101407.03;4995231;28;20046;-80
2023/09/05 05:11:10;;;;;;;4.63;1.83;;;;;;;24.86;46.85;101410.00;4978449;28;20050;-80
2023/09/05 05:13:38;;;;;;;3.20;1.40;;;;;;;24.83;47.03;101421.94;4994941;28;20042;-80
2023/09/05 05:16:06;;;;;;;3.40;1.77;;;;;;;24.87;45.82;101417.22;4995129;28;20049;-80
2023/09/05 05:18:34;;;;;;;4.95;1.98;;;;;;;24.89;46.77;101423.31;4995343;28;20042;-80
2023/09/05 05:21:02;;;;;;;2.95;1.55;;;;;;;24.72;47.00;101420.78;4979619;28;20050;-80
2023/09/05 05:23:30;;;;;;;2.80;1.58;;;;;;;24.85;46.43;101430.78;4995035;28;20061;-80
2023/09/05 05:25:59;;;;;;;5.50;1.70;;;;;;;24.81;46.38;101427.06;4995069;28;20050;-80
2023/09/05 05:28:27;;;;;;;3.92;1.98;;;;;;;24.65;46.98;101432.59;4995612;28;20061;-80
2023/09/05 05:30:55;;;;;;;6.63;2.03;;;;;;;24.64;47.03;101428.16;4995302;28;20050;-80
2023/09/05 05:33:24;;;;;;;4.55;1.73;;;;;;;24.74;47.34;101435.22;4994964;28;20514;-80
2023/09/05 05:35:54;;;;;;;2.65;1.70;;;;;;;24.82;47.20;101442.66;4995308;28;20050;-80
2023/09/05 05:38:24;;;;;;;2.30;2.00;;;;;;;24.61;46.66;101445.66;4979459;28;20046;-80
2023/09/05 05:40:52;;;;;;;3.15;1.98;;;;;;;24.70;47.36;101446.31;5011581;28;20054;-81
2023/09/05 05:43:20;;;;;;;3.22;1.98;;;;;;;24.70;47.13;101444.31;5010240;28;20416;-81
2023/09/05 05:45:51;;;;;;;3.95;1.55;;;;;;;24.81;47.44;101452.25;5010525;28;20042;-81
2023/09/05 05:48:19;;;;;;;3.85;1.77;;;;;;;24.68;46.85;101452.28;5012677;28;20069;-81
2023/09/05 05:50:47;;;;;;;3.28;1.58;;;;;;;24.79;46.26;101462.97;5012439;28;20049;-81
2023/09/05 05:53:15;;;;;;;2.45;1.63;;;;;;;24.77;46.45;101445.69;5012649;28;20046;-81
2023/09/05 05:55:43;;;;;;;3.53;1.80;;;;;;;24.67;46.87;101449.81;5011107;28;20402;-81
2023/09/05 05:58:13;;;;;;;3.83;1.77;;;;;;;24.56;47.18;101449.53;5011484;28;20053;-81
2023/09/05 06:00:45;;;;;;;5.43;2.22;;;;;;;24.58;47.41;101452.78;5011585;28;20065;-80
2023/09/05 06:03:15;;;;;;;3.65;1.45;;;;;;;24.63;46.41;101449.72;5004245;28;20049;-80
2023/09/05 06:05:48;;;;;;;3.75;1.15;;;;;;;24.52;46.59;101448.59;5011239;28;20050;-81
2023/09/05 06:08:17;;;;;;;1.60;1.50;;;;;;;24.48;47.50;101454.09;5011694;28;20045;-80
2023/09/05 06:10:46;;;;;;;3.35;1.63;;;;;;;24.50;47.19;101454.56;5011892;28;20050;-80
2023/09/05 06:13:14;;;;;;;2.03;1.77;;;;;;;24.67;47.73;101455.41;5011789;28;20050;-80
2023/09/05 06:15:43;;;;;;;3.50;1.80;;;;;;;24.59;46.46;101460.03;5011750;28;20042;-81
2023/09/05 06:18:12;;;;;;;3.72;1.52;;;;;;;24.67;45.89;101461.84;5010020;28;20053;-80
2023/09/05 06:20:40;;;;;;;4.68;1.75;;;;;;;24.64;46.48;101454.16;5011037;28;20061;-81
2023/09/05 06:23:09;;;;;;;4.72;1.88;;;;;;;24.60;46.07;101458.84;5010732;28;20050;-81
2023/09/05 06:25:37;;;;;;;7.10;1.67;;;;;;;24.76;46.85;101460.88;5010887;28;20049;-80
2023/09/05 06:28:06;;;;;;;3.65;1.85;;;;;;;24.63;46.92;101458.13;5009767;28;20058;-81
2023/09/05 06:30:34;;;;;;;5.38;2.13;;;;;;;24.82;47.19;101459.47;5010807;28;20042;-80
2023/09/05 06:33:03;;;;;;;5.55;2.38;;;;;;;24.70;46.85;101458.31;5008159;28;20061;-80
2023/09/05 06:35:32;;;;;;;2.15;1.75;;;;;;;24.91;46.90;101462.94;5009560;28;20042;-81
2023/09/05 06:38:02;;;;;;;4.97;1.55;;;;;;;24.80;47.21;101467.38;5008900;28;20049;-82
2023/09/05 06:40:31;;;;;;;3.13;2.25;;;;;;;24.66;46.94;101467.78;5015788;28;20072;-80
2023/09/05 06:43:00;;;;;;;4.97;2.35;;;;;;;24.75;46.98;101460.06;5030279;28;20050;-81
2023/09/05 06:45:29;;;;;;;1.50;1.40;;;;;;;24.99;46.60;101471.53;5013856;28;20485;-80
2023/09/05 06:47:57;;;;;;;2.60;1.60;;;;;;;25.04;46.31;101476.88;5010084;28;20061;-82
2023/09/05 06:50:26;;;;;;;3.00;1.77;;;;;;;25.13;45.99;101471.09;5011167;28;20050;-82
2023/09/05 06:52:54;;;;;;;3.78;1.75;;;;;;;25.14;45.53;101478.31;5014530;28;20038;-81
2023/09/05 06:55:23;;;;;;;3.80;2.13;;;;;;;25.23;45.51;101482.56;5014494;28;20057;-80
2023/09/05 06:57:52;;;;;;;2.97;1.80;;;;;;;25.03;44.83;101478.03;5011963;28;20060;-82
2023/09/05 07:00:23;;;;;;;3.08;1.70;;;;;;;25.10;46.78;101486.63;5015238;28;20037;-82
2023/09/05 07:02:52;;;;;;;4.10;1.83;;;;;;;24.90;46.27;101483.72;5015099;28;20046;-82
2023/09/05 07:05:20;;;;;;;2.58;1.85;;;;;;;24.82;46.01;101484.66;5014888;28;20459;-83
2023/09/05 07:07:49;;;;;;;2.70;1.60;;;;;;;24.98;47.05;101486.69;5014666;28;20054;-83
2023/09/05 07:10:17;;;;;;;3.65;2.13;;;;;;;24.91;47.20;101481.69;5014861;28;20428;-83
2023/09/05 07:12:46;;;;;;;6.78;1.85;;;;;;;25.02;46.05;101487.63;5015067;28;20053;-82
2023/09/05 07:15:14;;;;;;;6.63;2.00;;;;;;;24.68;47.10;101483.06;5013846;28;20045;-83
2023/09/05 07:17:43;;;;;;;3.80;2.08;;;;;;;24.70;46.43;101488.31;5014715;28;20050;-82
2023/09/05 07:20:11;;;;;;;3.38;1.70;;;;;;;24.64;47.40;101482.13;5029288;28;20054;-83
2023/09/05 07:22:40;;;;;;;2.03;1.55;;;;;;;24.70;46.72;101480.69;5014929;28;20160;-83
2023/09/05 07:25:09;;;;;;;3.15;1.65;;;;;;;24.79;46.09;101479.75;5014888;28;20401;-82
2023/09/05 07:27:37;;;;;;;2.35;1.42;;;;;;;24.79;46.04;101488.16;5014666;28;20038;-82
2023/09/05 07:30:07;;;;;;;3.47;1.77;;;;;;;24.79;46.48;101483.34;5011966;28;20058;-82
2023/09/05 07:32:36;;;;;;;5.47;1.60;;;;;;;24.99;46.28;101496.72;5014291;28;20046;-81
2023/09/05 07:35:05;;;;;;;7.35;1.90;;;;;;;24.86;46.22;101495.94;5013983;28;20057;-82
2023/09/05 07:37:33;;;;;;;4.40;2.10;;;;;;;24.96;46.13;101492.66;5009233;28;20493;-83
2023/09/05 07:40:05;;;;;;;2.75;1.98;;;;;;;24.93;46.00;101487.78;5011470;28;20046;-82
2023/09/05 07:42:33;;;;;;;9.55;1.80;;;;;;;25.12;46.36;101495.47;5012882;28;20404;-81
2023/09/05 07:45:02;;;;;;;4.75;2.33;;;;;;;25.35;45.99;101501.31;5014005;28;20046;-83
2023/09/05 07:47:30;;;;;;;3.97;2.20;;;;;;;25.31;46.00;101496.78;5012167;28;20046;-82
2023/09/05 07:49:59;;;;;;;5.65;1.70;;;;;;;25.71;45.17;101501.44;5013628;28;20046;-84
2023/09/05 07:52:27;;;;;;;3.28;1.63;;;;;;;25.64;43.73;101490.03;5028474;28;20046;-82
2023/09/05 07:54:56;;;;;;;3.88;1.80;;;;;;;25.76;44.41;101494.75;5013825;28;20038;-83
2023/09/05 07:57:24;;;;;;;4.93;2.17;;;;;;;26.14;43.07;101507.25;5013187;28;20045;-82
2023/09/05 07:59:53;;;;;;;2.25;1.73;;;;;;;25.78;42.65;101503.59;5013757;28;20041;-83
2023/09/05 08:02:21;;;;;;;4.45;1.85;;;;;;;25.89;42.73;101510.28;5024090;28;20057;-86
2023/09/05 08:04:50;;;;;;;3.90;2.63;;;;;;;25.86;42.77;101521.41;5001666;28;20045;-82
2023/09/05 08:07:19;;;;;;;4.00;1.33;;;;;;;25.86;42.55;101513.00;5012075;28;20058;-83
2023/09/05 08:09:50;;;;;;;2.72;2.00;;;;;;;25.94;42.49;101509.19;5013747;28;20058;-82
2023/09/05 08:12:19;;;;;;;3.55;2.15;;;;;;;25.69;42.03;101512.19;4998680;28;20041;-82
2023/09/05 08:14:47;;;;;;;3.75;1.52;;;;;;;25.73;42.53;101515.09;5013159;28;20041;-82
2023/09/05 08:17:16;;;;;;;3.47;1.98;;;;;;;25.60;40.63;101515.19;5012872;28;20058;-83
2023/09/05 08:19:44;;;;;;;2.67;1.70;;;;;;;25.69;41.80;101517.81;5014143;28;20389;-84
2023/09/05 08:22:14;;;;;;;2.95;2.13;;;;;;;25.80;41.05;101518.06;5013494;28;20046;-82
2023/09/05 08:24:43;;;;;;;2.83;1.98;;;;;;;25.73;41.50;101513.09;5013103;28;20481;-83
2023/09/05 08:27:13;;;;;;;2.75;2.10;;;;;;;25.54;42.50;101510.19;5013291;28;20061;-82
2023/09/05 08:29:45;;;;;;;2.38;1.77;;;;;;;25.47;41.91;101517.22;5013279;28;20050;-82
2023/09/05 08:32:13;;;;;;;1.88;1.73;;;;;;;25.63;41.77;101511.66;5013326;28;20049;-81
2023/09/05 08:34:47;;;;;;;7.35;2.58;;;;;;;25.90;42.03;101516.69;5013808;28;20042;-81
2023/09/05 08:37:16;;;;;;;3.28;1.83;;;;;;;25.55;42.11;101511.84;5012562;28;20061;-81
2023/09/05 08:39:45;;;;;;;2.60;1.83;;;;;;;25.72;41.63;101519.06;5014103;28;20050;-82
2023/09/05 08:42:13;;;;;;;4.07;1.83;;;;;;;25.66;40.69;101518.50;5013732;28;20072;-82
2023/09/05 08:44:43;;;;;;;2.92;1.88;;;;;;;25.54;40.99;101515.78;5010565;28;20045;-83
2023/09/05 08:47:11;;;;;;;2.47;1.90;;;;;;;25.53;40.25;101516.94;5011103;28;20042;-83
2023/09/05 08:49:40;;;;;;;2.03;1.75;;;;;;;25.49;41.35;101514.88;5010977;28;20428;-83
2023/09/05 08:52:11;;;;;;;3.30;1.95;;;;;;;25.69;41.84;101526.22;5011371;28;20057;-82
2023/09/05 08:54:39;;;;;;;3.92;2.15;;;;;;;25.50;41.34;101524.09;5003576;28;20430;-84
2023/09/05 08:57:08;;;;;;;3.03;1.85;;;;;;;25.53;41.45;101525.34;5011107;28;20117;-83
2023/09/05 08:59:37;;;;;;;1.88;1.75;;;;;;;25.59;40.14;101527.56;4991222;28;20065;-83
2023/09/05 09:02:05;;;;;;;3.55;2.00;;;;;;;25.77;40.77;101530.81;5009586;28;20061;-84
2023/09/05 09:04:51;;;;;;;3.05;2.05;;;;;;;25.58;39.83;101519.50;5025621;28;20049;-82
2023/09/05 09:07:29;;;;;;;1.95;1.70;;;;;;;25.73;39.99;101518.72;5004400;28;20535;-83
2023/09/05 09:09:58;;;;;;;3.50;2.10;;;;;;;25.71;39.80;101518.25;5009957;28;20054;-82
2023/09/05 09:12:32;;;;;;;4.88;2.00;;;;;;;25.59;40.20;101530.38;5012237;28;20042;-82
2023/09/05 09:15:12;;;;;;;4.15;2.38;;;;;;;25.66;40.62;101521.31;5011927;28;20041;-82
2023/09/05 09:17:42;;;;;;;2.33;2.00;;;;;;;25.72;40.15;101525.47;5007643;28;20061;-82
2023/09/05 09:20:12;;;;;;;2.42;1.73;;;;;;;25.49;39.52;101517.69;5011265;28;20049;-80
2023/09/05 09:22:41;;;;;;;2.28;1.88;;;;;;;25.84;39.56;101518.16;5012158;28;20073;-83
2023/09/05 09:25:15;;;;;;;2.42;1.95;;;;;;;26.06;39.16;101507.44;5011859;28;20042;-82
2023/09/05 09:27:44;;;;;;;4.50;2.10;;;;;;;25.55;39.02;101509.03;5013102;28;20045;-83
2023/09/05 09:30:13;;;;;;;2.17;1.98;;;;;;;25.53;38.30;101508.53;5010411;28;20065;-83
2023/09/05 09:32:50;;;;;;;2.50;2.30;;;;;;;26.00;38.58;101521.75;5013021;28;20068;-82
2023/09/05 09:35:19;;;;;;;2.00;1.75;;;;;;;25.98;37.47;101518.50;5012173;28;20050;-82
2023/09/05 09:37:49;;;;;;;1.98;1.60;;;;;;;26.00;37.83;101504.94;5012419;28;20052;-83
2023/09/05 09:40:18;;;;;;;2.05;1.55;;;;;;;26.21;37.50;101509.41;5027612;28;20045;-82
2023/09/05 09:42:50;;;;;;;2.33;1.80;;;;;;;26.34;39.03;101512.13;5011352;28;20049;-83
2023/09/05 09:45:19;;;;;;;1.98;1.73;;;;;;;26.37;37.96;101509.41;4998061;28;20055;-82
2023/09/05 09:47:51;;;;;;;2.53;2.20;;;;;;;26.44;38.04;101517.16;5009095;28;20050;-83
2023/09/05 09:50:20;;;;;;;1.95;1.80;;;;;;;26.54;35.94;101507.34;5027578;28;20111;-82
2023/09/05 09:52:53;;;;;;;3.35;1.60;;;;;;;26.90;36.98;101496.03;5010934;28;20046;-83
2023/09/05 09:55:25;;;;;;;2.42;1.90;;;;;;;27.20;36.89;101498.22;5011532;28;20061;-84
2023/09/05 09:58:08;;;;;;;5.15;2.00;;;;;;;26.87;35.88;101497.59;5024347;28;20057;-83
2023/09/05 10:00:40;;;;;;;4.00;1.77;;;;;;;27.26;35.92;101507.97;5011374;28;20556;-85
2023/09/05 10:03:08;;;;;;;3.30;2.15;;;;;;;27.30;35.88;101505.22;5011330;28;20409;-83
2023/09/05 10:05:41;;;;;;;2.33;1.80;;;;;;;26.95;35.54;101495.78;5011029;28;20393;-84
2023/09/05 10:08:10;;;;;;;2.80;2.38;;;;;;;26.88;36.57;101484.38;5009878;28;20052;-84
2023/09/05 10:10:40;;;;;;;3.35;2.40;;;;;;;26.98;36.91;101495.03;5010049;28;20053;-84
2023/09/05 10:13:10;;;;;;;2.50;2.22;;;;;;;26.94;35.41;101491.34;5023079;28;20061;-83
2023/09/05 10:15:41;;;;;;;2.63;1.83;;;;;;;26.97;35.05;101487.78;5011290;28;20064;-82
2023/09/05 10:18:12;;;;;;;2.72;1.80;;;;;;;27.22;35.58;101477.00;5007737;28;20049;-82
2023/09/05 10:20:41;;;;;;;1.77;1.67;;;;;;;27.46;35.43;101475.00;5010046;28;20057;-83
2023/09/05 10:23:10;;;;;;;1.80;1.70;;;;;;;27.54;35.37;101473.13;5011153;28;20054;-83
2023/09/05 10:25:42;;;;;;;6.22;2.30;;;;;;;27.80;35.66;101460.31;5010447;28;20401;-84
2023/09/05 10:28:11;;;;;;;3.20;2.20;;;;;;;27.82;34.48;101465.56;5013376;28;20053;-84
2023/09/05 10:30:49;;;;;;;2.58;1.90;;;;;;;27.77;34.98;101467.50;5015534;28;20049;-83
2023/09/05 10:33:35;;;;;;;2.60;2.15;;;;;;;27.88;34.25;101456.44;5008172;28;20042;-83
2023/09/05 10:36:06;;;;;;;3.28;2.08;;;;;;;27.96;35.07;101456.53;5014712;28;20068;-84
2023/09/05 10:38:38;;;;;;;2.78;2.00;;;;;;;27.66;34.82;101457.28;5014371;28;20069;-83
2023/09/05 10:41:36;;;;;;;4.30;2.58;;;;;;;27.89;34.10;101458.06;5014894;28;20074;-84
2023/09/05 10:44:06;;;;;;;3.38;2.28;;;;;;;27.77;33.59;101466.72;5014089;28;20057;-84
2023/09/05 10:46:35;;;;;;;2.55;1.92;;;;;;;27.71;34.20;101454.16;5015338;28;20038;-83
2023/09/05 10:49:16;;;;;;;2.92;1.88;;;;;;;27.89;34.50;101441.19;5013094;28;20054;-83
2023/09/05 10:52:16;;;;;;;2.58;1.92;;;;;;;27.97;33.27;101441.28;5011294;28;20065;-83
2023/09/05 10:54:44;;;;;;;3.78;2.03;;;;;;;28.04;33.77;101436.56;5014542;28;20045;-84
2023/09/05 10:57:40;;;;;;;3.17;1.70;;;;;;;28.20;34.09;101423.50;5015662;28;20042;-84
2023/09/05 11:00:14;;;;;;;1.90;1.67;;;;;;;28.07;34.53;101425.72;5015889;28;20050;-83
2023/09/05 11:02:44;;;;;;;1.80;1.70;;;;;;;28.12;34.15;101426.22;5009812;28;20472;-84
2023/09/05 11:05:12;;;;;;;2.25;1.70;;;;;;;28.17;35.08;101422.25;5014264;28;20381;-83
2023/09/05 11:07:43;;;;;;;2.03;1.77;;;;;;;28.11;33.28;101410.50;5004301;28;20394;-83
2023/09/05 11:10:38;;;;;;;3.55;1.88;;;;;;;28.21;33.86;101409.06;5008317;28;20507;-83
2023/09/05 11:13:10;;;;;;;3.25;1.92;;;;;;;28.21;34.19;101411.06;5006467;28;20049;-81
2023/09/05 11:15:45;;;;;;;3.55;2.20;;;;;;;28.32;34.97;101412.03;5006090;28;20072;-84
2023/09/05 11:18:17;;;;;;;2.30;1.70;;;;;;;28.49;32.88;101399.34;5007834;28;20404;-81
2023/09/05 11:20:48;;;;;;;2.15;1.70;;;;;;;28.45;33.92;101404.16;5006957;28;20046;-81
2023/09/05 11:23:20;;;;;;;3.03;1.90;;;;;;;28.43;32.89;101396.09;5005477;28;20397;-82
2023/09/05 11:25:54;;;;;;;2.40;2.10;;;;;;;28.55;33.83;101391.38;5006554;28;20050;-81
2023/09/05 11:28:24;;;;;;;2.90;1.95;;;;;;;28.44;34.74;101392.06;5004746;28;20077;-82
2023/09/05 11:31:03;;;;;;;2.17;1.98;;;;;;;28.59;33.95;101400.66;5027186;28;20287;-81
2023/09/05 11:33:34;;;;;;;5.30;2.17;;;;;;;28.56;34.90;101384.56;5014118;28;20392;-82
2023/09/05 11:36:05;;;;;;;11.55;2.20;;;;;;;28.68;35.18;101383.47;5014068;28;20050;-84
2023/09/05 11:38:48;;;;;;;12.48;2.28;;;;;;;28.69;35.74;101385.91;5013810;28;20042;-81